createdAt,value
2022-10-17T00:03:49.787Z,16.02
2022-10-17T00:08:52.490Z,16.08
2022-10-17T00:13:56.891Z,16.35
2022-10-17T00:19:01.585Z,16.24
2022-10-17T00:24:04.840Z,16.32
2022-10-17T00:29:08.845Z,15.84
2022-10-17T00:34:13.112Z,16.23
2022-10-17T00:39:15.820Z,16.30
2022-10-17T00:44:59.028Z,16.30
2022-10-17T00:50:03.896Z,15.53
2022-10-17T00:55:13.240Z,14.95
2022-10-17T01:00:18.693Z,16.38
2022-10-17T01:05:23.927Z,15.89
2022-10-17T01:10:33.469Z,16.44
2022-10-17T01:15:50.086Z,14.91
2022-10-17T01:21:23.793Z,16.47
2022-10-17T01:26:38.373Z,15.17
2022-10-17T01:31:49.698Z,14.67
2022-10-17T01:37:01.901Z,16.19
2022-10-17T01:42:16.150Z,15.52
2022-10-17T01:47:24.574Z,16.56
2022-10-17T01:52:31.152Z,16.32
2022-10-17T01:57:37.029Z,16.58
2022-10-17T02:02:42.291Z,16.16
2022-10-17T02:07:44.985Z,16.61
2022-10-17T02:12:55.398Z,16.00
2022-10-17T02:18:15.039Z,16.62
2022-10-17T02:23:25.515Z,16.37
2022-10-17T02:28:38.169Z,16.63
2022-10-17T02:33:46.778Z,16.30
2022-10-17T02:38:53.522Z,16.75
2022-10-17T02:43:58.813Z,16.75
2022-10-17T02:49:13.217Z,16.71
2022-10-17T02:54:22.243Z,15.46
2022-10-17T02:59:27.524Z,16.47
2022-10-17T03:04:31.805Z,16.52
2022-10-17T03:09:34.648Z,15.47
2022-10-17T03:14:37.638Z,16.70
2022-10-17T03:19:41.857Z,15.62
2022-10-17T03:24:45.133Z,15.52
2022-10-17T03:29:48.419Z,15.51
2022-10-17T03:34:53.471Z,15.88
2022-10-17T03:39:56.944Z,16.08
2022-10-17T03:44:59.915Z,15.97
2022-10-17T03:50:05.121Z,16.77
2022-10-17T03:55:10.973Z,15.47
2022-10-17T04:00:15.718Z,15.90
2022-10-17T04:05:20.364Z,16.82
2022-10-17T04:10:26.576Z,16.79
2022-10-17T04:15:29.474Z,16.83
2022-10-17T04:20:35.836Z,16.88
2022-10-17T04:25:38.627Z,16.92
2022-10-17T04:30:45.083Z,16.87
2022-10-17T04:35:58.160Z,16.16
2022-10-17T04:41:03.178Z,16.55
2022-10-17T04:46:09.195Z,16.96
2022-10-17T04:51:16.713Z,16.92
2022-10-17T04:56:50.031Z,16.03
2022-10-17T05:01:53.460Z,14.95
2022-10-17T05:06:58.414Z,14.76
2022-10-17T05:12:17.682Z,15.98
2022-10-17T05:17:21.809Z,17.13
2022-10-17T05:22:27.172Z,16.80
2022-10-17T05:27:51.678Z,16.73
2022-10-17T05:32:56.421Z,16.18
2022-10-17T05:38:01.801Z,15.91
2022-10-17T05:43:07.449Z,17.14
2022-10-17T05:48:10.311Z,17.07
2022-10-17T05:53:14.438Z,17.17
2022-10-17T06:04:02.706Z,17.13
2022-10-17T06:09:07.950Z,16.78
2022-10-17T06:14:14.089Z,17.09
2022-10-17T06:19:17.754Z,15.09
2022-10-17T06:24:23.388Z,17.20
2022-10-17T06:29:28.301Z,16.90
2022-10-17T06:34:31.120Z,17.25
2022-10-17T06:39:35.822Z,17.33
2022-10-17T06:44:48.758Z,16.95
2022-10-17T06:50:16.656Z,16.61
2022-10-17T06:55:45.310Z,16.54
2022-10-17T07:01:03.198Z,16.44
2022-10-17T07:06:07.174Z,17.53
2022-10-17T07:11:13.391Z,17.49
2022-10-17T07:16:17.297Z,16.17
2022-10-17T07:21:23.305Z,17.61
2022-10-17T07:26:27.425Z,17.77
2022-10-17T07:31:30.304Z,17.76
2022-10-17T07:36:33.293Z,17.44
2022-10-17T07:41:40.523Z,18.08
2022-10-17T07:46:44.162Z,18.15
2022-10-17T07:51:48.683Z,18.17
2022-10-17T07:56:52.843Z,16.66
2022-10-17T08:01:56.424Z,18.47
2022-10-17T08:07:17.919Z,17.78
2022-10-17T08:12:25.985Z,18.77
2022-10-17T08:17:28.747Z,18.77
2022-10-17T08:22:31.854Z,19.01
2022-10-17T08:27:42.948Z,19.10
2022-10-17T08:32:45.872Z,18.17
2022-10-17T08:37:48.769Z,19.15
2022-10-17T08:43:10.327Z,19.20
2022-10-17T08:48:24.772Z,19.26
2022-10-17T08:53:33.964Z,18.78
2022-10-17T08:58:48.719Z,19.34
2022-10-17T09:04:07.871Z,18.68
2022-10-17T09:09:26.090Z,19.49
2022-10-17T09:14:44.601Z,18.58
2022-10-17T09:19:57.538Z,19.41
2022-10-17T09:25:07.545Z,19.83
2022-10-17T09:30:51.566Z,19.90
2022-10-17T09:35:55.098Z,19.84
2022-10-17T09:41:01.510Z,19.76
2022-10-17T09:46:10.000Z,19.65
2022-10-17T09:51:25.149Z,18.65
2022-10-17T09:56:29.424Z,19.50
2022-10-17T10:01:34.821Z,19.39
2022-10-17T10:06:38.044Z,18.91
2022-10-17T10:11:48.915Z,19.21
2022-10-17T10:16:54.599Z,18.41
2022-10-17T10:22:00.441Z,19.17
2022-10-17T10:27:05.837Z,18.49
2022-10-17T10:32:19.451Z,19.04
2022-10-17T10:37:39.361Z,17.46
2022-10-17T10:42:48.335Z,19.13
2022-10-17T10:48:02.047Z,18.92
2022-10-17T10:53:18.699Z,17.37
2022-10-17T10:58:41.791Z,18.38
2022-10-17T11:03:59.558Z,19.06
2022-10-17T11:09:14.898Z,19.19
2022-10-17T11:14:25.070Z,18.41
2022-10-17T11:19:36.340Z,19.19
2022-10-17T11:24:47.490Z,18.28
2022-10-17T11:29:50.275Z,19.19
2022-10-17T11:35:01.113Z,18.04
2022-10-17T11:40:07.679Z,19.32
2022-10-17T11:45:15.409Z,19.07
2022-10-17T11:55:49.349Z,19.32
2022-10-17T12:00:59.404Z,19.30
2022-10-17T12:06:14.215Z,18.94
2022-10-17T12:11:28.407Z,19.10
2022-10-17T12:16:47.173Z,18.94
2022-10-17T12:22:06.861Z,18.80
2022-10-17T12:27:41.492Z,19.35
2022-10-17T12:33:06.138Z,19.32
2022-10-17T12:38:49.836Z,19.34
2022-10-17T12:45:01.038Z,17.18
2022-10-17T12:49:43.787Z,17.76
2022-10-17T12:55:10.956Z,19.43
2022-10-17T13:00:36.242Z,19.54
2022-10-17T13:05:42.201Z,17.40
2022-10-17T13:10:51.611Z,19.54
2022-10-17T13:15:59.251Z,18.77
2022-10-17T13:21:05.580Z,19.73
2022-10-17T13:26:16.228Z,18.88
2022-10-17T13:31:30.916Z,19.56
2022-10-17T13:36:38.005Z,19.50
2022-10-17T13:41:42.570Z,17.90
2022-10-17T13:46:52.900Z,19.02
2022-10-17T13:51:59.111Z,19.04
2022-10-17T13:57:06.479Z,19.44
2022-10-17T14:02:16.561Z,17.19
2022-10-17T14:07:46.242Z,19.78
2022-10-17T14:12:57.354Z,17.79
2022-10-17T14:18:07.788Z,19.76
2022-10-17T14:23:33.819Z,19.71
2022-10-17T14:28:38.706Z,19.63
2022-10-17T14:33:51.045Z,18.48
2022-10-17T14:38:58.568Z,19.66
2022-10-17T14:44:04.640Z,18.84
2022-10-17T14:49:24.230Z,18.36
2022-10-17T14:54:30.167Z,19.71
2022-10-17T14:59:53.489Z,19.64
2022-10-17T15:04:58.925Z,19.11
2022-10-17T15:10:04.321Z,19.66
2022-10-17T15:15:09.320Z,19.76
2022-10-17T15:20:28.385Z,19.45
2022-10-17T15:25:32.560Z,19.14
2022-10-17T15:30:37.102Z,19.30
2022-10-17T15:35:45.806Z,17.72
2022-10-17T15:40:51.957Z,18.81
2022-10-17T15:45:57.952Z,19.15
2022-10-17T15:51:03.868Z,18.44
2022-10-17T15:56:08.872Z,19.15
2022-10-17T16:01:22.511Z,19.04
2022-10-17T16:06:27.592Z,17.94
2022-10-17T16:11:36.187Z,17.80
2022-10-17T16:16:39.258Z,18.23
2022-10-17T16:21:43.489Z,18.42
2022-10-17T16:26:46.225Z,18.40
2022-10-17T16:31:48.916Z,18.41
2022-10-17T16:36:55.138Z,18.41
2022-10-17T16:41:58.722Z,18.09
2022-10-17T16:47:03.350Z,18.32
2022-10-17T16:52:07.633Z,18.31
2022-10-17T16:57:12.081Z,17.88
2022-10-17T17:02:17.597Z,17.92
2022-10-17T17:07:25.210Z,17.93
2022-10-17T17:12:27.892Z,18.30
2022-10-17T17:17:48.677Z,18.27
2022-10-17T17:22:53.776Z,18.25
2022-10-17T17:27:56.676Z,17.26
2022-10-17T17:33:00.553Z,16.63
2022-10-17T17:38:10.036Z,17.26
2022-10-17T17:43:15.531Z,16.49
2022-10-17T17:48:18.869Z,17.25
2022-10-17T17:53:27.956Z,16.59
2022-10-17T17:58:32.574Z,16.34
2022-10-17T18:03:35.446Z,17.85
2022-10-17T18:08:40.193Z,17.59
2022-10-17T18:13:42.979Z,16.71
2022-10-17T18:18:46.356Z,17.02
2022-10-17T18:23:51.711Z,17.91
2022-10-17T18:28:55.352Z,17.81
2022-10-17T18:34:09.290Z,16.90
2022-10-17T18:39:21.558Z,17.47
2022-10-17T18:44:24.547Z,17.82
2022-10-17T18:49:27.469Z,16.85
2022-10-17T18:54:33.509Z,16.41
2022-10-17T18:59:38.253Z,17.14
2022-10-17T19:04:41.119Z,17.72
2022-10-17T19:09:45.778Z,17.20
2022-10-17T19:14:50.727Z,15.66
2022-10-17T19:19:55.049Z,17.26
2022-10-17T19:25:00.676Z,16.67
2022-10-17T19:30:04.875Z,16.68
2022-10-17T19:35:08.627Z,17.04
2022-10-17T19:40:20.308Z,17.55
2022-10-17T19:45:23.104Z,16.73
2022-10-17T19:50:27.406Z,16.87
2022-10-17T19:55:34.797Z,16.29
2022-10-17T20:00:37.672Z,16.34
2022-10-17T20:05:40.589Z,16.22
2022-10-17T20:10:44.876Z,17.51
2022-10-17T20:15:55.283Z,15.35
2022-10-17T20:21:06.487Z,15.89
2022-10-17T20:31:45.835Z,17.21
2022-10-17T20:36:49.209Z,17.16
2022-10-17T20:41:53.534Z,17.20
2022-10-17T20:47:04.423Z,15.85
2022-10-17T20:52:07.466Z,17.40
2022-10-17T20:57:12.794Z,15.95
2022-10-17T21:02:15.864Z,17.38
2022-10-17T21:07:20.777Z,17.32
2022-10-17T21:12:31.428Z,16.94
2022-10-17T21:17:42.200Z,16.35
2022-10-17T21:22:47.422Z,16.71
2022-10-17T21:27:58.467Z,16.97
2022-10-17T21:33:02.130Z,16.91
2022-10-17T21:38:18.440Z,16.84
2022-10-17T21:43:49.360Z,16.96
2022-10-17T21:48:52.777Z,14.91
2022-10-17T21:53:59.452Z,16.42
2022-10-17T21:59:24.665Z,16.78
2022-10-17T22:04:30.870Z,15.91
2022-10-17T22:09:38.177Z,15.98
2022-10-17T22:15:05.536Z,13.76
2022-10-17T22:20:25.365Z,16.78
2022-10-17T22:25:28.142Z,16.80
2022-10-17T22:30:32.328Z,15.01
2022-10-17T22:35:36.876Z,16.84
2022-10-17T22:40:46.285Z,15.93
2022-10-17T22:45:58.846Z,16.50
2022-10-17T22:51:02.571Z,16.75
2022-10-17T22:56:09.223Z,16.12
2022-10-17T23:01:18.848Z,16.73
2022-10-17T23:06:24.456Z,16.24
2022-10-17T23:11:30.099Z,16.23
2022-10-17T23:16:43.456Z,14.93
2022-10-17T23:21:48.196Z,16.55
2022-10-17T23:26:50.835Z,16.64
2022-10-17T23:32:06.675Z,15.08
2022-10-17T23:37:17.467Z,16.75
2022-10-17T23:42:23.530Z,16.76
2022-10-17T23:47:29.983Z,15.32
2022-10-17T23:52:33.050Z,15.36
2022-10-17T23:57:38.192Z,16.54
